sensor_id;sensor_type;location;lat;lon;timestamp;pressure;altitude;pressure_sealevel;temperature;humidity
36454;BME280;22478;51.740;-1.314;2023-02-08T00:01:05;102452.90;;;0.91;91.45
36454;BME280;22478;51.740;-1.314;2023-02-08T00:03:32;102453.85;;;1.07;90.43
36454;BME280;22478;51.740;-1.314;2023-02-08T00:05:59;102451.34;;;1.17;90.00
36454;BME280;22478;51.740;-1.314;2023-02-08T00:08:26;102452.68;;;1.14;88.46
36454;BME280;22478;51.740;-1.314;2023-02-08T00:10:53;102458.77;;;1.01;88.87
36454;BME280;22478;51.740;-1.314;2023-02-08T00:13:20;102458.54;;;1.41;84.91
36454;BME280;22478;51.740;-1.314;2023-02-08T00:15:47;102458.72;;;1.13;86.39
36454;BME280;22478;51.740;-1.314;2023-02-08T00:18:14;102460.94;;;0.89;86.29
36454;BME280;22478;51.740;-1.314;2023-02-08T00:20:42;102467.22;;;1.46;85.13
36454;BME280;22478;51.740;-1.314;2023-02-08T00:23:11;102465.33;;;1.25;85.87
36454;BME280;22478;51.740;-1.314;2023-02-08T00:25:40;102455.79;;;1.59;84.93
36454;BME280;22478;51.740;-1.314;2023-02-08T00:28:10;102451.66;;;1.39;83.40
36454;BME280;22478;51.740;-1.314;2023-02-08T00:30:38;102456.47;;;0.88;83.95
36454;BME280;22478;51.740;-1.314;2023-02-08T00:33:06;102453.86;;;0.49;84.84
36454;BME280;22478;51.740;-1.314;2023-02-08T00:35:33;102448.71;;;0.49;83.62
36454;BME280;22478;51.740;-1.314;2023-02-08T00:38:00;102445.87;;;0.85;82.57
36454;BME280;22478;51.740;-1.314;2023-02-08T00:40:27;102449.07;;;0.82;82.34
36454;BME280;22478;51.740;-1.314;2023-02-08T00:42:54;102450.15;;;0.48;80.81
36454;BME280;22478;51.740;-1.314;2023-02-08T00:45:22;102445.60;;;1.06;81.36
36454;BME280;22478;51.740;-1.314;2023-02-08T00:47:49;102441.02;;;1.01;81.85
36454;BME280;22478;51.740;-1.314;2023-02-08T00:50:16;102441.25;;;0.49;81.13
36454;BME280;22478;51.740;-1.314;2023-02-08T00:52:43;102436.87;;;0.53;81.22
36454;BME280;22478;51.740;-1.314;2023-02-08T00:55:11;102436.57;;;0.39;82.29
36454;BME280;22478;51.740;-1.314;2023-02-08T00:57:38;102437.71;;;1.21;82.20
36454;BME280;22478;51.740;-1.314;2023-02-08T01:00:07;102433.41;;;0.67;82.03
36454;BME280;22478;51.740;-1.314;2023-02-08T01:02:36;102425.52;;;0.43;82.53
36454;BME280;22478;51.740;-1.314;2023-02-08T01:05:04;102425.11;;;-0.17;83.05
36454;BME280;22478;51.740;-1.314;2023-02-08T01:07:32;102417.63;;;-0.07;84.27
36454;BME280;22478;51.740;-1.314;2023-02-08T01:09:59;102414.34;;;0.48;82.78
36454;BME280;22478;51.740;-1.314;2023-02-08T01:12:26;102410.99;;;0.52;83.65
36454;BME280;22478;51.740;-1.314;2023-02-08T01:14:53;102411.41;;;1.14;82.67
36454;BME280;22478;51.740;-1.314;2023-02-08T01:17:20;102409.13;;;0.12;82.09
36454;BME280;22478;51.740;-1.314;2023-02-08T01:19:47;102408.02;;;0.14;81.78
36454;BME280;22478;51.740;-1.314;2023-02-08T01:22:14;102407.06;;;0.57;81.53
36454;BME280;22478;51.740;-1.314;2023-02-08T01:24:41;102407.64;;;0.21;81.56
36454;BME280;22478;51.740;-1.314;2023-02-08T01:27:08;102404.80;;;0.86;81.86
36454;BME280;22478;51.740;-1.314;2023-02-08T01:29:35;102403.81;;;0.69;82.51
36454;BME280;22478;51.740;-1.314;2023-02-08T01:32:03;102413.43;;;1.09;79.63
36454;BME280;22478;51.740;-1.314;2023-02-08T01:34:31;102414.17;;;0.60;81.28
36454;BME280;22478;51.740;-1.314;2023-02-08T01:36:58;102415.21;;;0.92;79.55
36454;BME280;22478;51.740;-1.314;2023-02-08T01:39:25;102414.97;;;0.76;79.45
36454;BME280;22478;51.740;-1.314;2023-02-08T01:41:52;102411.69;;;-0.41;82.48
36454;BME280;22478;51.740;-1.314;2023-02-08T01:45:27;102408.73;;;0.19;82.21
36454;BME280;22478;51.740;-1.314;2023-02-08T01:48:00;102407.80;;;0.23;80.80
36454;BME280;22478;51.740;-1.314;2023-02-08T01:50:33;102407.39;;;0.43;82.44
36454;BME280;22478;51.740;-1.314;2023-02-08T01:53:03;102402.83;;;-0.29;81.00
36454;BME280;22478;51.740;-1.314;2023-02-08T01:55:33;102398.23;;;0.21;79.57
36454;BME280;22478;51.740;-1.314;2023-02-08T01:58:04;102391.66;;;-0.32;81.75
36454;BME280;22478;51.740;-1.314;2023-02-08T02:00:32;102392.59;;;-0.58;83.28
36454;BME280;22478;51.740;-1.314;2023-02-08T02:03:00;102385.95;;;-0.77;86.51
36454;BME280;22478;51.740;-1.314;2023-02-08T02:05:31;102389.54;;;-1.17;88.50
36454;BME280;22478;51.740;-1.314;2023-02-08T02:08:00;102380.93;;;0.12;84.11
36454;BME280;22478;51.740;-1.314;2023-02-08T02:10:29;102382.43;;;-0.82;87.81
36454;BME280;22478;51.740;-1.314;2023-02-08T02:13:02;102380.74;;;-0.77;90.85
36454;BME280;22478;51.740;-1.314;2023-02-08T02:15:29;102386.98;;;-0.17;89.84
36454;BME280;22478;51.740;-1.314;2023-02-08T02:17:56;102384.94;;;-0.67;88.51
36454;BME280;22478;51.740;-1.314;2023-02-08T02:20:33;102378.35;;;-0.31;87.18
36454;BME280;22478;51.740;-1.314;2023-02-08T02:23:24;102382.08;;;-0.53;87.24
36454;BME280;22478;51.740;-1.314;2023-02-08T02:26:09;102379.98;;;-0.61;86.74
36454;BME280;22478;51.740;-1.314;2023-02-08T02:28:58;102375.65;;;-1.41;88.29
36454;BME280;22478;51.740;-1.314;2023-02-08T02:31:42;102371.84;;;0.92;82.24
36454;BME280;22478;51.740;-1.314;2023-02-08T02:34:18;102375.63;;;-0.34;84.28
36454;BME280;22478;51.740;-1.314;2023-02-08T02:36:52;102376.95;;;-0.88;88.49
36454;BME280;22478;51.740;-1.314;2023-02-08T02:39:33;102365.91;;;-0.32;86.99
36454;BME280;22478;51.740;-1.314;2023-02-08T02:42:09;102362.62;;;-1.09;89.21
36454;BME280;22478;51.740;-1.314;2023-02-08T02:44:45;102356.85;;;-1.10;87.82
36454;BME280;22478;51.740;-1.314;2023-02-08T02:47:22;102353.89;;;-1.29;89.98
36454;BME280;22478;51.740;-1.314;2023-02-08T02:49:53;102348.78;;;-0.28;86.55
36454;BME280;22478;51.740;-1.314;2023-02-08T02:52:24;102349.24;;;-0.28;83.91
36454;BME280;22478;51.740;-1.314;2023-02-08T02:54:57;102346.46;;;0.44;86.36
36454;BME280;22478;51.740;-1.314;2023-02-08T02:57:30;102351.81;;;-0.04;86.81
36454;BME280;22478;51.740;-1.314;2023-02-08T02:59:59;102353.73;;;-0.59;86.59
36454;BME280;22478;51.740;-1.314;2023-02-08T03:02:31;102349.97;;;-0.46;84.13
36454;BME280;22478;51.740;-1.314;2023-02-08T03:04:58;102343.57;;;-1.34;84.51
36454;BME280;22478;51.740;-1.314;2023-02-08T03:07:38;102345.80;;;0.26;80.08
36454;BME280;22478;51.740;-1.314;2023-02-08T03:10:20;102338.05;;;-0.22;82.58
36454;BME280;22478;51.740;-1.314;2023-02-08T03:12:57;102331.49;;;0.60;83.37
36454;BME280;22478;51.740;-1.314;2023-02-08T03:15:32;102332.22;;;-0.96;85.87
36454;BME280;22478;51.740;-1.314;2023-02-08T03:18:10;102333.15;;;-0.64;83.41
36454;BME280;22478;51.740;-1.314;2023-02-08T03:20:50;102328.59;;;-1.21;88.34
36454;BME280;22478;51.740;-1.314;2023-02-08T03:23:24;102320.20;;;-1.08;86.42
36454;BME280;22478;51.740;-1.314;2023-02-08T03:26:01;102323.02;;;-0.72;84.44
36454;BME280;22478;51.740;-1.314;2023-02-08T03:28:38;102322.12;;;-0.31;84.35
36454;BME280;22478;51.740;-1.314;2023-02-08T03:31:12;102321.07;;;0.06;83.84
36454;BME280;22478;51.740;-1.314;2023-02-08T03:33:45;102319.84;;;-1.46;87.88
36454;BME280;22478;51.740;-1.314;2023-02-08T03:36:20;102322.14;;;-0.46;84.48
36454;BME280;22478;51.740;-1.314;2023-02-08T03:38:49;102323.38;;;-0.96;85.55
36454;BME280;22478;51.740;-1.314;2023-02-08T03:41:23;102322.43;;;-0.61;86.32
36454;BME280;22478;51.740;-1.314;2023-02-08T03:43:57;102321.20;;;-0.45;85.95
36454;BME280;22478;51.740;-1.314;2023-02-08T03:46:28;102317.05;;;-0.54;84.85
36454;BME280;22478;51.740;-1.314;2023-02-08T03:49:00;102316.20;;;0.64;84.20
36454;BME280;22478;51.740;-1.314;2023-02-08T03:51:29;102318.30;;;-0.32;83.71
36454;BME280;22478;51.740;-1.314;2023-02-08T03:53:57;102316.54;;;-0.29;83.45
36454;BME280;22478;51.740;-1.314;2023-02-08T03:56:34;102312.28;;;-0.03;83.59
36454;BME280;22478;51.740;-1.314;2023-02-08T03:59:06;102315.57;;;-0.77;83.37
36454;BME280;22478;51.740;-1.314;2023-02-08T04:01:41;102317.93;;;-0.22;84.17
36454;BME280;22478;51.740;-1.314;2023-02-08T04:04:10;102313.82;;;-0.60;83.33
36454;BME280;22478;51.740;-1.314;2023-02-08T04:06:38;102314.48;;;-1.78;90.51
36454;BME280;22478;51.740;-1.314;2023-02-08T04:09:05;102312.43;;;-0.92;85.91
36454;BME280;22478;51.740;-1.314;2023-02-08T04:11:32;102317.87;;;-0.84;86.50
36454;BME280;22478;51.740;-1.314;2023-02-08T04:13:59;102313.95;;;-0.58;85.28
36454;BME280;22478;51.740;-1.314;2023-02-08T04:16:26;102308.84;;;-1.41;85.70
36454;BME280;22478;51.740;-1.314;2023-02-08T04:18:54;102308.62;;;-1.20;83.35
36454;BME280;22478;51.740;-1.314;2023-02-08T04:21:21;102309.55;;;-0.48;85.47
36454;BME280;22478;51.740;-1.314;2023-02-08T04:23:48;102308.45;;;-0.87;86.35
36454;BME280;22478;51.740;-1.314;2023-02-08T04:26:15;102311.88;;;-1.09;84.78
36454;BME280;22478;51.740;-1.314;2023-02-08T04:28:42;102314.28;;;-1.12;83.66
36454;BME280;22478;51.740;-1.314;2023-02-08T04:31:09;102316.36;;;-0.73;84.65
36454;BME280;22478;51.740;-1.314;2023-02-08T04:33:36;102318.14;;;0.18;82.19
36454;BME280;22478;51.740;-1.314;2023-02-08T04:36:04;102319.53;;;-0.94;84.81
36454;BME280;22478;51.740;-1.314;2023-02-08T04:38:32;102317.12;;;-0.93;83.80
36454;BME280;22478;51.740;-1.314;2023-02-08T04:40:59;102316.05;;;-1.22;86.37
36454;BME280;22478;51.740;-1.314;2023-02-08T04:43:26;102313.19;;;-1.77;85.51
36454;BME280;22478;51.740;-1.314;2023-02-08T04:45:54;102315.71;;;-1.45;87.84
36454;BME280;22478;51.740;-1.314;2023-02-08T04:48:21;102319.62;;;-2.53;90.44
36454;BME280;22478;51.740;-1.314;2023-02-08T04:50:49;102306.54;;;-0.00;82.54
36454;BME280;22478;51.740;-1.314;2023-02-08T04:53:16;102302.20;;;-0.82;81.41
36454;BME280;22478;51.740;-1.314;2023-02-08T04:55:43;102307.30;;;-2.27;88.47
36454;BME280;22478;51.740;-1.314;2023-02-08T04:58:10;102303.38;;;-1.46;86.09
36454;BME280;22478;51.740;-1.314;2023-02-08T05:00:37;102295.11;;;-0.78;83.94
36454;BME280;22478;51.740;-1.314;2023-02-08T05:03:05;102294.58;;;-1.35;87.53
36454;BME280;22478;51.740;-1.314;2023-02-08T05:05:32;102287.86;;;-0.48;82.50
36454;BME280;22478;51.740;-1.314;2023-02-08T05:07:59;102277.88;;;-1.53;86.16
36454;BME280;22478;51.740;-1.314;2023-02-08T05:10:27;102272.80;;;-1.89;88.29
36454;BME280;22478;51.740;-1.314;2023-02-08T05:12:54;102270.70;;;-0.72;85.38
36454;BME280;22478;51.740;-1.314;2023-02-08T05:15:22;102274.48;;;-1.98;84.61
36454;BME280;22478;51.740;-1.314;2023-02-08T05:17:49;102272.58;;;-1.79;84.89
36454;BME280;22478;51.740;-1.314;2023-02-08T05:20:17;102271.88;;;-3.16;86.68
36454;BME280;22478;51.740;-1.314;2023-02-08T05:22:45;102263.65;;;-1.37;84.95
36454;BME280;22478;51.740;-1.314;2023-02-08T05:25:12;102257.97;;;-1.17;84.71
36454;BME280;22478;51.740;-1.314;2023-02-08T05:27:39;102248.77;;;-1.43;85.53
36454;BME280;22478;51.740;-1.314;2023-02-08T05:30:07;102248.45;;;-1.47;84.45
36454;BME280;22478;51.740;-1.314;2023-02-08T05:32:34;102248.42;;;-0.41;79.60
36454;BME280;22478;51.740;-1.314;2023-02-08T05:35:07;102246.07;;;-1.75;82.56
36454;BME280;22478;51.740;-1.314;2023-02-08T05:37:34;102247.47;;;-1.53;84.42
36454;BME280;22478;51.740;-1.314;2023-02-08T05:40:01;102244.65;;;-1.21;81.77
36454;BME280;22478;51.740;-1.314;2023-02-08T05:42:28;102254.66;;;-1.22;85.23
36454;BME280;22478;51.740;-1.314;2023-02-08T05:44:55;102254.06;;;-1.23;82.55
36454;BME280;22478;51.740;-1.314;2023-02-08T05:47:22;102251.57;;;-1.32;83.05
36454;BME280;22478;51.740;-1.314;2023-02-08T05:49:55;102251.02;;;-0.92;83.68
36454;BME280;22478;51.740;-1.314;2023-02-08T05:52:22;102249.71;;;-1.13;82.17
36454;BME280;22478;51.740;-1.314;2023-02-08T05:54:50;102248.20;;;-1.08;82.45
36454;BME280;22478;51.740;-1.314;2023-02-08T05:57:17;102247.52;;;-0.83;81.03
36454;BME280;22478;51.740;-1.314;2023-02-08T05:59:44;102247.24;;;-0.68;80.37
36454;BME280;22478;51.740;-1.314;2023-02-08T06:02:12;102249.14;;;-2.05;83.31
36454;BME280;22478;51.740;-1.314;2023-02-08T06:04:39;102249.21;;;-0.49;79.10
36454;BME280;22478;51.740;-1.314;2023-02-08T06:07:06;102250.38;;;-1.53;82.32
36454;BME280;22478;51.740;-1.314;2023-02-08T06:09:33;102251.12;;;-1.27;83.07
36454;BME280;22478;51.740;-1.314;2023-02-08T06:12:00;102250.96;;;-0.35;77.32
36454;BME280;22478;51.740;-1.314;2023-02-08T06:14:27;102248.27;;;-1.46;80.28
36454;BME280;22478;51.740;-1.314;2023-02-08T06:16:55;102247.67;;;-1.40;81.29
36454;BME280;22478;51.740;-1.314;2023-02-08T06:19:22;102252.67;;;-0.33;78.97
36454;BME280;22478;51.740;-1.314;2023-02-08T06:21:50;102250.76;;;-0.42;74.82
36454;BME280;22478;51.740;-1.314;2023-02-08T06:24:17;102253.49;;;-0.98;77.05
36454;BME280;22478;51.740;-1.314;2023-02-08T06:26:44;102257.67;;;-1.96;83.08
36454;BME280;22478;51.740;-1.314;2023-02-08T06:29:11;102254.57;;;-2.35;81.91
36454;BME280;22478;51.740;-1.314;2023-02-08T06:31:39;102252.74;;;-0.66;74.86
36454;BME280;22478;51.740;-1.314;2023-02-08T06:34:06;102253.09;;;-2.42;79.25
36454;BME280;22478;51.740;-1.314;2023-02-08T06:36:33;102251.21;;;-1.10;80.23
36454;BME280;22478;51.740;-1.314;2023-02-08T06:39:00;102257.63;;;-3.19;86.09
36454;BME280;22478;51.740;-1.314;2023-02-08T06:41:27;102256.89;;;-2.24;86.53
36454;BME280;22478;51.740;-1.314;2023-02-08T06:43:54;102259.17;;;-2.49;84.85
36454;BME280;22478;51.740;-1.314;2023-02-08T06:46:21;102252.34;;;-0.44;81.39
36454;BME280;22478;51.740;-1.314;2023-02-08T06:48:48;102262.23;;;-2.39;84.41
36454;BME280;22478;51.740;-1.314;2023-02-08T06:51:15;102263.20;;;-1.04;81.81
36454;BME280;22478;51.740;-1.314;2023-02-08T06:53:42;102267.66;;;-2.39;84.08
36454;BME280;22478;51.740;-1.314;2023-02-08T06:56:10;102267.53;;;-1.84;83.01
36454;BME280;22478;51.740;-1.314;2023-02-08T06:58:38;102264.01;;;-1.59;82.73
36454;BME280;22478;51.740;-1.314;2023-02-08T07:01:05;102265.32;;;-1.73;81.29
36454;BME280;22478;51.740;-1.314;2023-02-08T07:03:32;102271.47;;;-2.11;81.26
36454;BME280;22478;51.740;-1.314;2023-02-08T07:06:00;102265.44;;;-1.10;78.35
36454;BME280;22478;51.740;-1.314;2023-02-08T07:08:27;102263.34;;;-1.89;79.08
36454;BME280;22478;51.740;-1.314;2023-02-08T07:10:55;102267.24;;;-2.45;81.94
36454;BME280;22478;51.740;-1.314;2023-02-08T07:13:22;102259.30;;;-2.10;79.74
36454;BME280;22478;51.740;-1.314;2023-02-08T07:15:54;102261.80;;;-2.08;78.99
36454;BME280;22478;51.740;-1.314;2023-02-08T07:18:21;102252.23;;;-1.13;75.44
36454;BME280;22478;51.740;-1.314;2023-02-08T07:20:49;102258.52;;;-0.87;75.47
36454;BME280;22478;51.740;-1.314;2023-02-08T07:23:16;102268.11;;;-1.52;77.77
36454;BME280;22478;51.740;-1.314;2023-02-08T07:25:43;102270.01;;;-1.18;75.63
36454;BME280;22478;51.740;-1.314;2023-02-08T07:28:10;102274.12;;;-2.01;78.30
36454;BME280;22478;51.740;-1.314;2023-02-08T07:30:43;102269.62;;;-2.40;79.18
36454;BME280;22478;51.740;-1.314;2023-02-08T07:33:10;102269.86;;;-1.83;78.95
36454;BME280;22478;51.740;-1.314;2023-02-08T07:35:37;102267.38;;;-2.07;80.30
36454;BME280;22478;51.740;-1.314;2023-02-08T07:38:05;102267.82;;;-2.78;82.96
36454;BME280;22478;51.740;-1.314;2023-02-08T07:40:32;102265.36;;;-2.06;82.85
36454;BME280;22478;51.740;-1.314;2023-02-08T07:42:59;102267.55;;;-3.32;85.38
36454;BME280;22478;51.740;-1.314;2023-02-08T07:45:31;102266.28;;;-2.60;84.23
36454;BME280;22478;51.740;-1.314;2023-02-08T07:47:58;102268.89;;;-3.08;84.84
36454;BME280;22478;51.740;-1.314;2023-02-08T07:50:25;102267.97;;;-2.32;77.74
36454;BME280;22478;51.740;-1.314;2023-02-08T07:52:52;102270.20;;;-2.17;79.79
36454;BME280;22478;51.740;-1.314;2023-02-08T07:55:19;102270.24;;;-2.45;81.56
36454;BME280;22478;51.740;-1.314;2023-02-08T07:57:47;102270.40;;;-1.83;77.35
36454;BME280;22478;51.740;-1.314;2023-02-08T08:00:20;102272.72;;;-2.56;82.16
36454;BME280;22478;51.740;-1.314;2023-02-08T08:02:47;102271.86;;;-4.10;92.80
36454;BME280;22478;51.740;-1.314;2023-02-08T08:05:15;102269.80;;;-2.68;88.06
36454;BME280;22478;51.740;-1.314;2023-02-08T08:07:42;102269.42;;;-3.91;91.48
36454;BME280;22478;51.740;-1.314;2023-02-08T08:10:10;102266.15;;;-2.97;96.36
36454;BME280;22478;51.740;-1.314;2023-02-08T08:12:42;102260.67;;;-2.89;93.23
36454;BME280;22478;51.740;-1.314;2023-02-08T08:15:09;102261.44;;;-2.49;97.03
36454;BME280;22478;51.740;-1.314;2023-02-08T08:17:36;102263.59;;;-2.34;94.67
36454;BME280;22478;51.740;-1.314;2023-02-08T08:20:04;102258.92;;;-2.30;94.36
36454;BME280;22478;51.740;-1.314;2023-02-08T08:22:32;102258.42;;;-1.93;93.59
36454;BME280;22478;51.740;-1.314;2023-02-08T08:24:59;102259.49;;;-4.05;98.30
36454;BME280;22478;51.740;-1.314;2023-02-08T08:27:26;102252.77;;;-3.12;98.78
36454;BME280;22478;51.740;-1.314;2023-02-08T08:29:54;102265.36;;;-5.99;100.00
36454;BME280;22478;51.740;-1.314;2023-02-08T08:32:22;102264.09;;;-5.42;100.00
36454;BME280;22478;51.740;-1.314;2023-02-08T08:34:49;102261.22;;;-3.48;100.00
36454;BME280;22478;51.740;-1.314;2023-02-08T08:37:22;102266.19;;;-4.30;100.00
36454;BME280;22478;51.740;-1.314;2023-02-08T08:39:49;102273.66;;;-5.25;100.00
36454;BME280;22478;51.740;-1.314;2023-02-08T08:42:16;102283.64;;;-6.20;100.00
36454;BME280;22478;51.740;-1.314;2023-02-08T08:44:44;102275.83;;;-4.97;100.00
36454;BME280;22478;51.740;-1.314;2023-02-08T08:47:11;102274.19;;;-4.16;100.00
36454;BME280;22478;51.740;-1.314;2023-02-08T08:49:38;102270.89;;;-4.44;100.00
36454;BME280;22478;51.740;-1.314;2023-02-08T08:52:05;102266.97;;;-4.87;100.00
36454;BME280;22478;51.740;-1.314;2023-02-08T08:54:33;102268.95;;;-4.40;100.00
36454;BME280;22478;51.740;-1.314;2023-02-08T08:57:00;102268.60;;;-4.65;100.00
36454;BME280;22478;51.740;-1.314;2023-02-08T08:59:28;102270.26;;;-5.01;100.00
36454;BME280;22478;51.740;-1.314;2023-02-08T09:01:55;102270.45;;;-5.12;100.00
36454;BME280;22478;51.740;-1.314;2023-02-08T09:04:27;102268.26;;;-5.95;100.00
36454;BME280;22478;51.740;-1.314;2023-02-08T09:06:55;102265.25;;;-5.35;100.00
36454;BME280;22478;51.740;-1.314;2023-02-08T09:09:22;102273.02;;;-6.36;100.00
36454;BME280;22478;51.740;-1.314;2023-02-08T09:11:49;102274.61;;;-6.67;100.00
36454;BME280;22478;51.740;-1.314;2023-02-08T09:14:17;102277.27;;;-8.16;100.00
36454;BME280;22478;51.740;-1.314;2023-02-08T09:16:45;102271.86;;;-5.73;100.00
36454;BME280;22478;51.740;-1.314;2023-02-08T09:19:13;102273.80;;;-7.82;100.00
36454;BME280;22478;51.740;-1.314;2023-02-08T09:21:41;102259.68;;;-6.37;100.00
36454;BME280;22478;51.740;-1.314;2023-02-08T09:24:08;102259.63;;;-3.97;100.00
36454;BME280;22478;51.740;-1.314;2023-02-08T09:26:36;102263.92;;;-4.46;100.00
36454;BME280;22478;51.740;-1.314;2023-02-08T09:29:09;102270.81;;;-4.46;100.00
36454;BME280;22478;51.740;-1.314;2023-02-08T09:31:36;102283.83;;;-6.37;100.00
36454;BME280;22478;51.740;-1.314;2023-02-08T09:34:05;102293.49;;;-7.59;100.00
36454;BME280;22478;51.740;-1.314;2023-02-08T09:36:36;102289.73;;;-6.42;100.00
36454;BME280;22478;51.740;-1.314;2023-02-08T09:39:07;102288.81;;;-6.88;100.00
36454;BME280;22478;51.740;-1.314;2023-02-08T09:41:54;102292.37;;;-7.73;100.00
36454;BME280;22478;51.740;-1.314;2023-02-08T09:44:30;102310.86;;;-9.71;100.00
36454;BME280;22478;51.740;-1.314;2023-02-08T09:47:02;102312.67;;;-9.39;100.00
36454;BME280;22478;51.740;-1.314;2023-02-08T09:49:39;102307.57;;;-9.16;100.00
36454;BME280;22478;51.740;-1.314;2023-02-08T09:52:12;102288.91;;;-5.50;100.00
36454;BME280;22478;51.740;-1.314;2023-02-08T09:54:45;102280.58;;;-4.22;100.00
36454;BME280;22478;51.740;-1.314;2023-02-08T09:57:19;102292.91;;;-9.51;100.00
36454;BME280;22478;51.740;-1.314;2023-02-08T09:59:52;102300.88;;;-8.95;100.00
36454;BME280;22478;51.740;-1.314;2023-02-08T10:02:24;102302.22;;;-8.89;100.00
36454;BME280;22478;51.740;-1.314;2023-02-08T10:05:00;102287.17;;;-7.38;100.00
36454;BME280;22478;51.740;-1.314;2023-02-08T10:07:30;102285.09;;;-8.33;100.00
36454;BME280;22478;51.740;-1.314;2023-02-08T10:10:00;102286.63;;;-7.68;100.00
36454;BME280;22478;51.740;-1.314;2023-02-08T10:12:37;102282.44;;;-6.50;100.00
36454;BME280;22478;51.740;-1.314;2023-02-08T10:15:19;102282.36;;;-6.47;100.00
36454;BME280;22478;51.740;-1.314;2023-02-08T10:18:00;102279.54;;;-7.33;100.00
36454;BME280;22478;51.740;-1.314;2023-02-08T10:20:41;102285.23;;;-7.24;100.00
36454;BME280;22478;51.740;-1.314;2023-02-08T10:23:20;102286.33;;;-7.34;100.00
36454;BME280;22478;51.740;-1.314;2023-02-08T10:26:04;102275.19;;;-5.70;100.00
36454;BME280;22478;51.740;-1.314;2023-02-08T10:28:44;102276.14;;;-5.30;100.00
36454;BME280;22478;51.740;-1.314;2023-02-08T10:31:18;102268.62;;;-4.32;100.00
36454;BME280;22478;51.740;-1.314;2023-02-08T10:33:56;102265.48;;;-7.18;100.00
36454;BME280;22478;51.740;-1.314;2023-02-08T10:36:31;102244.32;;;-1.76;100.00
36454;BME280;22478;51.740;-1.314;2023-02-08T10:39:02;102224.40;;;3.44;90.73
36454;BME280;22478;51.740;-1.314;2023-02-08T10:41:32;102209.77;;;6.80;72.96
36454;BME280;22478;51.740;-1.314;2023-02-08T10:44:04;102208.64;;;4.78;60.60
36454;BME280;22478;51.740;-1.314;2023-02-08T10:46:39;102203.97;;;3.85;68.96
36454;BME280;22478;51.740;-1.314;2023-02-08T10:49:15;102207.38;;;2.20;75.18
36454;BME280;22478;51.740;-1.314;2023-02-08T10:51:44;102216.64;;;-0.14;88.02
36454;BME280;22478;51.740;-1.314;2023-02-08T10:54:13;102210.17;;;1.23;86.92
36454;BME280;22478;51.740;-1.314;2023-02-08T10:56:45;102223.15;;;-5.06;100.00
36454;BME280;22478;51.740;-1.314;2023-02-08T10:59:19;102221.06;;;-4.59;100.00
36454;BME280;22478;51.740;-1.314;2023-02-08T11:01:48;102223.77;;;-6.40;100.00
36454;BME280;22478;51.740;-1.314;2023-02-08T11:04:16;102221.92;;;-6.30;100.00
36454;BME280;22478;51.740;-1.314;2023-02-08T11:06:46;102218.68;;;-6.75;100.00
36454;BME280;22478;51.740;-1.314;2023-02-08T11:09:21;102220.66;;;-5.95;100.00
36454;BME280;22478;51.740;-1.314;2023-02-08T11:11:49;102207.56;;;-2.64;100.00
36454;BME280;22478;51.740;-1.314;2023-02-08T11:14:22;102202.75;;;-2.42;100.00
36454;BME280;22478;51.740;-1.314;2023-02-08T11:16:50;102195.27;;;-3.15;100.00
36454;BME280;22478;51.740;-1.314;2023-02-08T11:19:30;102186.68;;;-3.34;100.00
36454;BME280;22478;51.740;-1.314;2023-02-08T11:21:59;102173.57;;;-0.59;100.00
36454;BME280;22478;51.740;-1.314;2023-02-08T11:24:31;102160.91;;;1.29;97.38
36454;BME280;22478;51.740;-1.314;2023-02-08T11:26:59;102155.07;;;1.49;98.15
36454;BME280;22478;51.740;-1.314;2023-02-08T11:29:28;102134.14;;;5.85;81.42
36454;BME280;22478;51.740;-1.314;2023-02-08T11:31:58;102124.63;;;3.51;70.22
36454;BME280;22478;51.740;-1.314;2023-02-08T11:34:28;102117.95;;;5.06;68.57
36454;BME280;22478;51.740;-1.314;2023-02-08T11:37:03;102119.93;;;4.32;71.21
36454;BME280;22478;51.740;-1.314;2023-02-08T11:39:35;102108.10;;;7.17;58.39
36454;BME280;22478;51.740;-1.314;2023-02-08T11:42:05;102095.60;;;7.27;59.83
36454;BME280;22478;51.740;-1.314;2023-02-08T11:44:35;102085.57;;;8.80;54.46
36454;BME280;22478;51.740;-1.314;2023-02-08T11:47:09;102073.13;;;10.07;50.46
36454;BME280;22478;51.740;-1.314;2023-02-08T11:49:39;102070.26;;;9.39;51.68
36454;BME280;22478;51.740;-1.314;2023-02-08T11:52:19;102061.09;;;11.32;46.65
36454;BME280;22478;51.740;-1.314;2023-02-08T11:54:48;102055.20;;;12.25;43.86
36454;BME280;22478;51.740;-1.314;2023-02-08T11:57:17;102055.76;;;13.67;40.13
36454;BME280;22478;51.740;-1.314;2023-02-08T11:59:51;102067.12;;;8.73;42.81
36454;BME280;22478;51.740;-1.314;2023-02-08T12:02:38;102058.66;;;12.32;40.55
36454;BME280;22478;51.740;-1.314;2023-02-08T12:05:11;102057.73;;;11.54;41.27
36454;BME280;22478;51.740;-1.314;2023-02-08T12:07:49;102053.88;;;10.32;46.10
36454;BME280;22478;51.740;-1.314;2023-02-08T12:10:34;102052.32;;;10.97;43.83
36454;BME280;22478;51.740;-1.314;2023-02-08T12:13:24;102047.38;;;11.05;42.86
36454;BME280;22478;51.740;-1.314;2023-02-08T12:16:04;102049.38;;;8.63;49.06
36454;BME280;22478;51.740;-1.314;2023-02-08T12:18:43;102045.98;;;10.88;46.09
36454;BME280;22478;51.740;-1.314;2023-02-08T12:21:17;102042.84;;;11.48;43.03
36454;BME280;22478;51.740;-1.314;2023-02-08T12:23:49;102050.02;;;7.58;48.95
36454;BME280;22478;51.740;-1.314;2023-02-08T12:26:24;102063.23;;;5.74;58.00
36454;BME280;22478;51.740;-1.314;2023-02-08T12:29:11;102047.16;;;9.67;51.28
36454;BME280;22478;51.740;-1.314;2023-02-08T12:31:51;102041.50;;;10.71;48.51
36454;BME280;22478;51.740;-1.314;2023-02-08T12:34:32;102031.46;;;11.72;45.99
36454;BME280;22478;51.740;-1.314;2023-02-08T12:37:19;102042.74;;;4.74;59.98
36454;BME280;22478;51.740;-1.314;2023-02-08T12:39:54;102019.29;;;13.14;43.24
36454;BME280;22478;51.740;-1.314;2023-02-08T12:42:34;102028.83;;;10.97;43.10
36454;BME280;22478;51.740;-1.314;2023-02-08T12:45:23;102038.07;;;6.10;61.76
36454;BME280;22478;51.740;-1.314;2023-02-08T12:48:02;102019.76;;;10.80;50.41
36454;BME280;22478;51.740;-1.314;2023-02-08T12:50:41;102013.38;;;11.60;45.92
36454;BME280;22478;51.740;-1.314;2023-02-08T12:53:21;102004.58;;;10.36;49.24
36454;BME280;22478;51.740;-1.314;2023-02-08T12:55:53;102014.14;;;6.03;57.04
36454;BME280;22478;51.740;-1.314;2023-02-08T12:58:27;101998.01;;;10.26;48.99